BAW799 ENTC-EGLL
Flight info
| Callsign | BAW799 |
|---|---|
| Flight time | N/A |
| Altitude | 36000 |
| Route | AMIMO DCT GUBAV DCT VABRU DCT VEVOD DCT IPMOD DCT MITSI DCT UPGAS DCT TIPAN DCT WECOW DCT BINBO DCT AKOKO N866 BUKUT P7 BARMI |
| Aircraft | A320/M-SDE3FGHIRWY/LB1 |
Departure
| Time | 2026-05-06 16:36 |
|---|---|
| Airport | Tromsø Airport (ENTC) |
Arrival
| Time | N/A |
|---|---|
| Airport | London Heathrow Airport (EGLL) |
| Time | Latitude | Longitude | Altitude | Speed | Heading |
|---|---|---|---|---|---|
| 2026-05-06 15:55 | 69.67940 | 18.90884 | 37 ft | 0 kts | 283° |
| 2026-05-06 16:28 | 69.67940 | 18.90887 | 36 ft | 2 kts | 283° |
| 2026-05-06 16:28 | 69.67934 | 18.90958 | 37 ft | 4 kts | 281° |
| 2026-05-06 16:28 | 69.67930 | 18.91034 | 36 ft | 4 kts | 279° |
| 2026-05-06 16:29 | 69.67926 | 18.91112 | 32 ft | 4 kts | 273° |
| 2026-05-06 16:29 | 69.67927 | 18.91188 | 32 ft | 4 kts | 252° |
| 2026-05-06 16:29 | 69.67937 | 18.91235 | 34 ft | 2 kts | 194° |
| 2026-05-06 16:29 | 69.67938 | 18.91236 | 35 ft | 0 kts | 193° |
| 2026-05-06 16:32 | 69.67930 | 18.91230 | 34 ft | 5 kts | 193° |
| 2026-05-06 16:32 | 69.67895 | 18.91206 | 37 ft | 5 kts | 193° |
| 2026-05-06 16:32 | 69.67845 | 18.91172 | 38 ft | 9 kts | 193° |
| 2026-05-06 16:33 | 69.67782 | 18.91132 | 39 ft | 9 kts | 192° |
| 2026-05-06 16:33 | 69.67720 | 18.91093 | 40 ft | 10 kts | 192° |
| 2026-05-06 16:33 | 69.67648 | 18.91106 | 41 ft | 10 kts | 135° |
| 2026-05-06 16:34 | 69.67541 | 18.91360 | 42 ft | 12 kts | 192° |
| 2026-05-06 16:34 | 69.67443 | 18.91296 | 39 ft | 16 kts | 193° |
| 2026-05-06 16:34 | 69.67323 | 18.91247 | 35 ft | 11 kts | 178° |
| 2026-05-06 16:34 | 69.67258 | 18.91230 | 35 ft | 6 kts | 214° |
| 2026-05-06 16:35 | 69.67270 | 18.91155 | 35 ft | 5 kts | 345° |
| 2026-05-06 16:35 | 69.67318 | 18.91209 | 35 ft | 8 kts | 18° |
| 2026-05-06 16:35 | 69.67372 | 18.91243 | 38 ft | 7 kts | 13° |
| 2026-05-06 16:35 | 69.67533 | 18.91353 | 42 ft | 56 kts | 13° |
| 2026-05-06 16:36 | 69.68139 | 18.91761 | 29 ft | 119 kts | 13° |
| 2026-05-06 16:36 | 69.69086 | 18.92374 | 92 ft | 158 kts | 11° |
| 2026-05-06 16:36 | 69.70184 | 18.93132 | 645 ft | 162 kts | 12° |
| 2026-05-06 16:36 | 69.71279 | 18.93875 | 1352 ft | 163 kts | 13° |
| 2026-05-06 16:37 | 69.72432 | 18.94645 | 1658 ft | 180 kts | 13° |
| 2026-05-06 16:37 | 69.73731 | 18.95506 | 1837 ft | 204 kts | 13° |
| 2026-05-06 16:37 | 69.75194 | 18.96480 | 2169 ft | 224 kts | 13° |
| 2026-05-06 16:37 | 69.76738 | 18.97455 | 2884 ft | 229 kts | 6° |
| 2026-05-06 16:38 | 69.78289 | 18.96577 | 3625 ft | 234 kts | 327° |
| 2026-05-06 16:38 | 69.79328 | 18.93005 | 4443 ft | 237 kts | 294° |
| 2026-05-06 16:38 | 69.79811 | 18.88453 | 5282 ft | 238 kts | 282° |
| 2026-05-06 16:38 | 69.80098 | 18.83763 | 6105 ft | 239 kts | 279° |
| 2026-05-06 16:39 | 69.80355 | 18.78962 | 6881 ft | 242 kts | 279° |
| 2026-05-06 16:39 | 69.80623 | 18.74122 | 7587 ft | 249 kts | 277° |
| 2026-05-06 16:39 | 69.80404 | 18.68996 | 8002 ft | 266 kts | 248° |
| 2026-05-06 16:39 | 69.79314 | 18.64716 | 8667 ft | 274 kts | 219° |
| 2026-05-06 16:40 | 69.77689 | 18.61724 | 9400 ft | 278 kts | 212° |
| 2026-05-06 16:40 | 69.76008 | 18.58871 | 10108 ft | 283 kts | 212° |
| 2026-05-06 16:40 | 69.74236 | 18.55904 | 10282 ft | 305 kts | 212° |
| 2026-05-06 16:40 | 69.72327 | 18.52711 | 10454 ft | 326 kts | 212° |
| 2026-05-06 16:41 | 69.70347 | 18.49394 | 10912 ft | 334 kts | 212° |
| 2026-05-06 16:41 | 69.68332 | 18.46018 | 11527 ft | 338 kts | 212° |
| 2026-05-06 16:41 | 69.66289 | 18.42597 | 12169 ft | 341 kts | 212° |
| 2026-05-06 16:41 | 69.64255 | 18.39198 | 12800 ft | 343 kts | 212° |
| 2026-05-06 16:42 | 69.62738 | 18.36667 | 13251 ft | 345 kts | 212° |
| 2026-05-06 16:42 | 69.62545 | 18.36346 | 13316 ft | 345 kts | 212° |
| 2026-05-06 16:42 | 69.60453 | 18.32868 | 13912 ft | 349 kts | 212° |
| 2026-05-06 16:42 | 69.58360 | 18.29392 | 14454 ft | 351 kts | 212° |
| 2026-05-06 16:43 | 69.56240 | 18.25875 | 15058 ft | 352 kts | 212° |
| 2026-05-06 16:43 | 69.54116 | 18.22360 | 15614 ft | 354 kts | 212° |
| 2026-05-06 16:43 | 69.51971 | 18.18814 | 16132 ft | 357 kts | 212° |
| 2026-05-06 16:43 | 69.49838 | 18.15290 | 16643 ft | 360 kts | 212° |
| 2026-05-06 16:44 | 69.47665 | 18.11705 | 17165 ft | 363 kts | 212° |
| 2026-05-06 16:44 | 69.45463 | 18.08088 | 17685 ft | 366 kts | 212° |
| 2026-05-06 16:44 | 69.43247 | 18.04456 | 18189 ft | 369 kts | 212° |
| 2026-05-06 16:44 | 69.41009 | 18.00801 | 18671 ft | 372 kts | 211° |
| 2026-05-06 16:45 | 69.38759 | 17.97140 | 19132 ft | 375 kts | 211° |
| 2026-05-06 16:45 | 69.36488 | 17.93462 | 19586 ft | 377 kts | 211° |
| 2026-05-06 16:45 | 69.34195 | 17.89761 | 20054 ft | 380 kts | 211° |
| 2026-05-06 16:45 | 69.31892 | 17.86046 | 20513 ft | 383 kts | 211° |
| 2026-05-06 16:46 | 69.29603 | 17.82351 | 20954 ft | 385 kts | 211° |
| 2026-05-06 16:46 | 69.27258 | 17.78577 | 21398 ft | 387 kts | 211° |
| 2026-05-06 16:46 | 69.24909 | 17.74808 | 21836 ft | 389 kts | 210° |
| 2026-05-06 16:46 | 69.22543 | 17.71023 | 22245 ft | 392 kts | 210° |
| 2026-05-06 16:47 | 69.20163 | 17.67219 | 22647 ft | 395 kts | 210° |
| 2026-05-06 16:47 | 69.17765 | 17.63393 | 23051 ft | 397 kts | 210° |
| 2026-05-06 16:47 | 69.15350 | 17.59560 | 23431 ft | 400 kts | 210° |
| 2026-05-06 16:47 | 69.12947 | 17.55767 | 23736 ft | 403 kts | 210° |
| 2026-05-06 16:48 | 69.10488 | 17.51893 | 24055 ft | 405 kts | 210° |
| 2026-05-06 16:48 | 69.08023 | 17.48011 | 24376 ft | 407 kts | 210° |
| 2026-05-06 16:48 | 69.05546 | 17.44113 | 24710 ft | 409 kts | 210° |
| 2026-05-06 16:48 | 69.03059 | 17.40201 | 25031 ft | 412 kts | 210° |
| 2026-05-06 16:49 | 69.00575 | 17.36299 | 25337 ft | 414 kts | 210° |
| 2026-05-06 16:49 | 68.98049 | 17.32346 | 25655 ft | 417 kts | 210° |
| 2026-05-06 16:49 | 68.95504 | 17.28379 | 25979 ft | 418 kts | 209° |
| 2026-05-06 16:49 | 68.92954 | 17.24420 | 26302 ft | 421 kts | 209° |
| 2026-05-06 16:50 | 68.90380 | 17.20444 | 26609 ft | 423 kts | 209° |
| 2026-05-06 16:50 | 68.87817 | 17.16498 | 26924 ft | 426 kts | 210° |
| 2026-05-06 16:50 | 68.85221 | 17.12512 | 27248 ft | 428 kts | 209° |
| 2026-05-06 16:50 | 68.83485 | 17.09855 | 27450 ft | 430 kts | 210° |
| 2026-05-06 16:51 | 68.79978 | 17.04503 | 27969 ft | 430 kts | 209° |
| 2026-05-06 16:51 | 68.77363 | 17.00512 | 28420 ft | 429 kts | 209° |
| 2026-05-06 16:51 | 68.74644 | 16.97082 | 28852 ft | 430 kts | 200° |
| 2026-05-06 16:51 | 68.71798 | 16.94859 | 29267 ft | 430 kts | 193° |
| 2026-05-06 16:52 | 68.68876 | 16.93065 | 29691 ft | 430 kts | 193° |
| 2026-05-06 16:52 | 68.65958 | 16.91263 | 30100 ft | 429 kts | 194° |
| 2026-05-06 16:52 | 68.63083 | 16.89480 | 30446 ft | 429 kts | 194° |
| 2026-05-06 16:52 | 68.60122 | 16.87645 | 30793 ft | 429 kts | 194° |
| 2026-05-06 16:53 | 68.57209 | 16.85838 | 31128 ft | 429 kts | 194° |
| 2026-05-06 16:53 | 68.54294 | 16.84032 | 31475 ft | 429 kts | 194° |
| 2026-05-06 16:53 | 68.51381 | 16.82233 | 31814 ft | 430 kts | 194° |
| 2026-05-06 16:53 | 68.48446 | 16.80435 | 32162 ft | 430 kts | 194° |
| 2026-05-06 16:54 | 68.45561 | 16.78678 | 32498 ft | 430 kts | 194° |
| 2026-05-06 16:54 | 68.42632 | 16.76891 | 32845 ft | 430 kts | 194° |
| 2026-05-06 16:54 | 68.39710 | 16.75109 | 33184 ft | 430 kts | 194° |
| 2026-05-06 16:54 | 68.36781 | 16.73329 | 33515 ft | 431 kts | 194° |
| 2026-05-06 16:55 | 68.34842 | 16.72155 | 33723 ft | 431 kts | 194° |
| 2026-05-06 16:55 | 68.31917 | 16.70390 | 34042 ft | 430 kts | 194° |
| 2026-05-06 16:55 | 68.28046 | 16.68067 | 34392 ft | 430 kts | 194° |
| 2026-05-06 16:55 | 68.25124 | 16.66319 | 34625 ft | 430 kts | 194° |
| 2026-05-06 16:56 | 68.22200 | 16.64575 | 34863 ft | 430 kts | 194° |
| 2026-05-06 16:56 | 68.20267 | 16.63420 | 35029 ft | 430 kts | 194° |
| 2026-05-06 16:56 | 68.17344 | 16.61672 | 35260 ft | 430 kts | 194° |
| 2026-05-06 16:56 | 68.14416 | 16.59927 | 35478 ft | 430 kts | 194° |
| 2026-05-06 16:57 | 68.11493 | 16.58195 | 35703 ft | 430 kts | 194° |
| 2026-05-06 16:57 | 68.08570 | 16.56470 | 35849 ft | 431 kts | 194° |
| 2026-05-06 16:57 | 68.05620 | 16.54732 | 35900 ft | 435 kts | 194° |
| 2026-05-06 16:58 | 67.99632 | 16.51202 | 35899 ft | 446 kts | 194° |
| 2026-05-06 16:58 | 67.93533 | 16.47639 | 35897 ft | 450 kts | 194° |
| 2026-05-06 16:59 | 67.87498 | 16.43734 | 35895 ft | 448 kts | 202° |
| 2026-05-06 16:59 | 67.81854 | 16.36775 | 35895 ft | 447 kts | 207° |
| 2026-05-06 17:00 | 67.76272 | 16.29538 | 35895 ft | 447 kts | 207° |
| 2026-05-06 17:00 | 67.70676 | 16.22323 | 35887 ft | 447 kts | 207° |
| 2026-05-06 17:01 | 67.65087 | 16.15150 | 35896 ft | 447 kts | 207° |
| 2026-05-06 17:01 | 67.59523 | 16.08050 | 35900 ft | 447 kts | 207° |
| 2026-05-06 17:02 | 67.53916 | 16.00944 | 35906 ft | 447 kts | 207° |
| 2026-05-06 17:02 | 67.48302 | 15.93874 | 35907 ft | 447 kts | 207° |
| 2026-05-06 17:03 | 67.42689 | 15.86824 | 35909 ft | 447 kts | 207° |
| 2026-05-06 17:03 | 67.37109 | 15.79840 | 35881 ft | 447 kts | 207° |
| 2026-05-06 17:04 | 67.31494 | 15.72839 | 35890 ft | 448 kts | 207° |
| 2026-05-06 17:04 | 67.25850 | 15.65865 | 35900 ft | 449 kts | 207° |
| 2026-05-06 17:05 | 67.20200 | 15.58936 | 35902 ft | 449 kts | 207° |
| 2026-05-06 17:05 | 67.14558 | 15.52024 | 35904 ft | 449 kts | 207° |
| 2026-05-06 17:06 | 67.08942 | 15.45178 | 35901 ft | 449 kts | 206° |
| 2026-05-06 17:06 | 67.03291 | 15.38347 | 35905 ft | 449 kts | 206° |
| 2026-05-06 17:07 | 66.97637 | 15.31536 | 35906 ft | 449 kts | 206° |
| 2026-05-06 17:07 | 66.91977 | 15.24756 | 35905 ft | 449 kts | 206° |
| 2026-05-06 17:08 | 66.86359 | 15.18070 | 35903 ft | 449 kts | 206° |
| 2026-05-06 17:08 | 66.80694 | 15.11341 | 35904 ft | 449 kts | 206° |
| 2026-05-06 17:09 | 66.75025 | 15.04650 | 35910 ft | 449 kts | 206° |
| 2026-05-06 17:09 | 66.69379 | 14.98021 | 35917 ft | 449 kts | 206° |
| 2026-05-06 17:10 | 66.63693 | 14.91369 | 35920 ft | 449 kts | 206° |
| 2026-05-06 17:10 | 66.58042 | 14.84804 | 35924 ft | 449 kts | 206° |
| 2026-05-06 17:11 | 66.52354 | 14.78222 | 35929 ft | 449 kts | 206° |
| 2026-05-06 17:11 | 66.46715 | 14.71729 | 35926 ft | 448 kts | 206° |
| 2026-05-06 17:12 | 66.41034 | 14.65234 | 35935 ft | 448 kts | 206° |
| 2026-05-06 17:12 | 66.35358 | 14.58778 | 35940 ft | 448 kts | 206° |
| 2026-05-06 17:13 | 66.29719 | 14.52388 | 35936 ft | 448 kts | 206° |
| 2026-05-06 17:13 | 66.24039 | 14.45979 | 35935 ft | 448 kts | 206° |
| 2026-05-06 17:14 | 66.18364 | 14.39615 | 35927 ft | 447 kts | 206° |
| 2026-05-06 17:14 | 66.12724 | 14.33308 | 35931 ft | 447 kts | 206° |
| 2026-05-06 17:15 | 66.07051 | 14.26992 | 35929 ft | 447 kts | 206° |
| 2026-05-06 17:15 | 66.01400 | 14.20738 | 35934 ft | 447 kts | 206° |
| 2026-05-06 17:16 | 65.95728 | 14.14506 | 35935 ft | 447 kts | 206° |
| 2026-05-06 17:16 | 65.90054 | 14.08296 | 35921 ft | 446 kts | 206° |
| 2026-05-06 17:17 | 65.84384 | 14.02125 | 35934 ft | 446 kts | 206° |
| 2026-05-06 17:17 | 65.78705 | 13.95966 | 35935 ft | 445 kts | 206° |
| 2026-05-06 17:18 | 65.73066 | 13.89923 | 35936 ft | 445 kts | 205° |
| 2026-05-06 17:18 | 65.67352 | 13.83990 | 35938 ft | 445 kts | 205° |
| 2026-05-06 17:19 | 65.61676 | 13.78167 | 35937 ft | 445 kts | 205° |
| 2026-05-06 17:19 | 65.55975 | 13.72304 | 35942 ft | 444 kts | 205° |
| 2026-05-06 17:20 | 65.50286 | 13.66449 | 35949 ft | 443 kts | 205° |
| 2026-05-06 17:20 | 65.44641 | 13.60662 | 35949 ft | 443 kts | 205° |
| 2026-05-06 17:21 | 65.38953 | 13.54881 | 35949 ft | 443 kts | 205° |
| 2026-05-06 17:21 | 65.33282 | 13.49133 | 35956 ft | 443 kts | 205° |
| 2026-05-06 17:22 | 65.27629 | 13.43445 | 35943 ft | 442 kts | 205° |
| 2026-05-06 17:22 | 65.21950 | 13.37761 | 35961 ft | 442 kts | 205° |
| 2026-05-06 17:23 | 65.16274 | 13.32080 | 35970 ft | 442 kts | 205° |
| 2026-05-06 17:23 | 65.10624 | 13.26454 | 35966 ft | 442 kts | 205° |
| 2026-05-06 17:24 | 65.04938 | 13.20840 | 35959 ft | 442 kts | 204° |
| 2026-05-06 17:24 | 64.99210 | 13.15398 | 35952 ft | 442 kts | 204° |
| 2026-05-06 17:25 | 64.93523 | 13.10129 | 35958 ft | 442 kts | 204° |
| 2026-05-06 17:25 | 64.87783 | 13.04824 | 35966 ft | 442 kts | 204° |
| 2026-05-06 17:26 | 64.82084 | 12.99543 | 35968 ft | 442 kts | 204° |
| 2026-05-06 17:26 | 64.76362 | 12.94262 | 35972 ft | 441 kts | 204° |
| 2026-05-06 17:27 | 64.70637 | 12.89001 | 35955 ft | 441 kts | 204° |
| 2026-05-06 17:27 | 64.64957 | 12.83804 | 35968 ft | 441 kts | 204° |
| 2026-05-06 17:28 | 64.59237 | 12.78583 | 35975 ft | 440 kts | 204° |
| 2026-05-06 17:28 | 64.53525 | 12.73402 | 35976 ft | 440 kts | 204° |
| 2026-05-06 17:29 | 64.47845 | 12.68281 | 35977 ft | 440 kts | 204° |
| 2026-05-06 17:29 | 64.42123 | 12.63150 | 35960 ft | 440 kts | 204° |
| 2026-05-06 17:30 | 64.36407 | 12.58038 | 35976 ft | 440 kts | 204° |
| 2026-05-06 17:30 | 64.30702 | 12.52951 | 35988 ft | 439 kts | 204° |
| 2026-05-06 17:31 | 64.25024 | 12.47915 | 35997 ft | 439 kts | 204° |
| 2026-05-06 17:31 | 64.19307 | 12.42869 | 36006 ft | 439 kts | 204° |
| 2026-05-06 17:32 | 64.13597 | 12.37849 | 36006 ft | 439 kts | 204° |
| 2026-05-06 17:32 | 64.07915 | 12.32871 | 36008 ft | 439 kts | 204° |
| 2026-05-06 17:33 | 64.02201 | 12.27880 | 36005 ft | 439 kts | 204° |
| 2026-05-06 17:33 | 63.96532 | 12.22967 | 35990 ft | 439 kts | 203° |
| 2026-05-06 17:34 | 63.90816 | 12.18039 | 35994 ft | 439 kts | 203° |
| 2026-05-06 17:34 | 63.85101 | 12.13128 | 35995 ft | 439 kts | 203° |
| 2026-05-06 17:35 | 63.79408 | 12.08247 | 35981 ft | 438 kts | 204° |
| 2026-05-06 17:35 | 63.73696 | 12.03374 | 35991 ft | 438 kts | 203° |
| 2026-05-06 17:36 | 63.65168 | 11.96154 | 35992 ft | 438 kts | 203° |
| 2026-05-06 17:36 | 63.59465 | 11.91352 | 36000 ft | 438 kts | 203° |
| 2026-05-06 17:37 | 63.53804 | 11.86304 | 35983 ft | 435 kts | 208° |
| 2026-05-06 17:37 | 63.48371 | 11.80362 | 35997 ft | 434 kts | 209° |
| 2026-05-06 17:38 | 63.42978 | 11.74269 | 35999 ft | 433 kts | 210° |
| 2026-05-06 17:38 | 63.37613 | 11.68237 | 36000 ft | 433 kts | 209° |
| 2026-05-06 17:39 | 63.32208 | 11.62261 | 36001 ft | 433 kts | 209° |
| 2026-05-06 17:39 | 63.26834 | 11.56397 | 35980 ft | 433 kts | 209° |
| 2026-05-06 17:40 | 63.21425 | 11.50512 | 35993 ft | 432 kts | 209° |
| 2026-05-06 17:40 | 63.16023 | 11.44632 | 36001 ft | 432 kts | 209° |
| 2026-05-06 17:41 | 63.10656 | 11.38818 | 36004 ft | 431 kts | 209° |
| 2026-05-06 17:41 | 63.05263 | 11.32989 | 36016 ft | 431 kts | 209° |
| 2026-05-06 17:42 | 62.99890 | 11.27210 | 36003 ft | 432 kts | 209° |
| 2026-05-06 17:42 | 62.94479 | 11.21413 | 35984 ft | 432 kts | 209° |
| 2026-05-06 17:43 | 62.89057 | 11.15642 | 35982 ft | 432 kts | 209° |
| 2026-05-06 17:43 | 62.83648 | 11.09908 | 35987 ft | 432 kts | 209° |
| 2026-05-06 17:44 | 62.78248 | 11.04198 | 35997 ft | 432 kts | 209° |
| 2026-05-06 17:44 | 62.72862 | 10.98524 | 35995 ft | 432 kts | 208° |
| 2026-05-06 17:45 | 62.67439 | 10.92837 | 35966 ft | 432 kts | 209° |
| 2026-05-06 17:45 | 62.62022 | 10.87174 | 35977 ft | 432 kts | 209° |
| 2026-05-06 17:46 | 62.56638 | 10.81567 | 35980 ft | 432 kts | 209° |
| 2026-05-06 17:46 | 62.51200 | 10.75945 | 35983 ft | 432 kts | 208° |
| 2026-05-06 17:47 | 62.45769 | 10.70355 | 35974 ft | 432 kts | 208° |
| 2026-05-06 17:47 | 62.40343 | 10.64787 | 35958 ft | 432 kts | 209° |
| 2026-05-06 17:48 | 62.34951 | 10.59257 | 35965 ft | 431 kts | 208° |
| 2026-05-06 17:48 | 62.29528 | 10.53731 | 35971 ft | 431 kts | 208° |
| 2026-05-06 17:49 | 62.24109 | 10.48222 | 35970 ft | 430 kts | 208° |
| 2026-05-06 17:49 | 62.18727 | 10.42778 | 35970 ft | 430 kts | 208° |
| 2026-05-06 17:50 | 62.13298 | 10.37319 | 35935 ft | 430 kts | 209° |
| 2026-05-06 17:50 | 62.07887 | 10.31887 | 35954 ft | 429 kts | 209° |
| 2026-05-06 17:51 | 62.02495 | 10.26501 | 35963 ft | 429 kts | 209° |
| 2026-05-06 17:51 | 61.98002 | 10.22018 | 35966 ft | 429 kts | 209° |
| 2026-05-06 17:52 | 61.92597 | 10.16646 | 35963 ft | 428 kts | 208° |
| 2026-05-06 17:52 | 61.87180 | 10.11304 | 35963 ft | 428 kts | 208° |
| 2026-05-06 17:53 | 61.81827 | 10.06039 | 35950 ft | 428 kts | 209° |
| 2026-05-06 17:53 | 61.76406 | 10.00735 | 36001 ft | 427 kts | 209° |
| 2026-05-06 17:54 | 61.71036 | 9.95497 | 35962 ft | 427 kts | 209° |
| 2026-05-06 17:54 | 61.65633 | 9.90230 | 35958 ft | 427 kts | 209° |
| 2026-05-06 17:55 | 61.60264 | 9.85011 | 35960 ft | 427 kts | 209° |
| 2026-05-06 17:55 | 61.54848 | 9.79788 | 35939 ft | 427 kts | 209° |
| 2026-05-06 17:56 | 61.49447 | 9.74617 | 35955 ft | 426 kts | 209° |
| 2026-05-06 17:56 | 61.44080 | 9.69471 | 35957 ft | 425 kts | 209° |
| 2026-05-06 17:57 | 61.38692 | 9.64328 | 35962 ft | 425 kts | 209° |
| 2026-05-06 17:57 | 61.33328 | 9.59228 | 35962 ft | 425 kts | 208° |
| 2026-05-06 17:58 | 61.27956 | 9.54143 | 35962 ft | 425 kts | 208° |
| 2026-05-06 17:58 | 61.22588 | 9.49076 | 35959 ft | 425 kts | 208° |
| 2026-05-06 17:59 | 61.17201 | 9.44009 | 35963 ft | 425 kts | 208° |
| 2026-05-06 17:59 | 61.11868 | 9.39016 | 35964 ft | 425 kts | 208° |
| 2026-05-06 18:00 | 61.06460 | 9.33963 | 35963 ft | 425 kts | 208° |
| 2026-05-06 18:00 | 61.01071 | 9.28958 | 35923 ft | 424 kts | 208° |
| 2026-05-06 18:01 | 60.95676 | 9.23966 | 35949 ft | 424 kts | 208° |
| 2026-05-06 18:01 | 60.90290 | 9.18994 | 35951 ft | 424 kts | 208° |
| 2026-05-06 18:02 | 60.84944 | 9.14078 | 35958 ft | 423 kts | 208° |
| 2026-05-06 18:02 | 60.79557 | 9.09141 | 35962 ft | 423 kts | 208° |
| 2026-05-06 18:03 | 60.74196 | 9.04257 | 35964 ft | 423 kts | 208° |
| 2026-05-06 18:03 | 60.68816 | 8.99366 | 35954 ft | 422 kts | 208° |
| 2026-05-06 18:04 | 60.63486 | 8.94535 | 35970 ft | 421 kts | 208° |
| 2026-05-06 18:04 | 60.58125 | 8.89690 | 35974 ft | 421 kts | 208° |
| 2026-05-06 18:05 | 60.52765 | 8.84869 | 35983 ft | 421 kts | 208° |
| 2026-05-06 18:05 | 60.47412 | 8.80070 | 36001 ft | 421 kts | 208° |
| 2026-05-06 18:06 | 60.42069 | 8.75302 | 35971 ft | 421 kts | 208° |
| 2026-05-06 18:06 | 60.36692 | 8.70533 | 35974 ft | 421 kts | 208° |
| 2026-05-06 18:07 | 60.31345 | 8.65810 | 35985 ft | 421 kts | 208° |
| 2026-05-06 18:07 | 60.25972 | 8.61056 | 35990 ft | 421 kts | 208° |
| 2026-05-06 18:08 | 60.20597 | 8.56322 | 36013 ft | 421 kts | 208° |
| 2026-05-06 18:08 | 60.15228 | 8.51617 | 36001 ft | 421 kts | 208° |
| 2026-05-06 18:09 | 60.09854 | 8.46926 | 36010 ft | 421 kts | 208° |
| 2026-05-06 18:09 | 60.04510 | 8.42280 | 36013 ft | 420 kts | 208° |
| 2026-05-06 18:10 | 59.99138 | 8.37620 | 36018 ft | 420 kts | 208° |
| 2026-05-06 18:10 | 59.93766 | 8.32963 | 36017 ft | 420 kts | 208° |
| 2026-05-06 18:11 | 59.88414 | 8.28335 | 35985 ft | 420 kts | 208° |
| 2026-05-06 18:11 | 59.83047 | 8.23747 | 36000 ft | 420 kts | 208° |
| 2026-05-06 18:12 | 59.77699 | 8.19180 | 36000 ft | 419 kts | 208° |
| 2026-05-06 18:12 | 59.72338 | 8.14611 | 36005 ft | 419 kts | 208° |
| 2026-05-06 18:13 | 59.66974 | 8.10054 | 36014 ft | 419 kts | 208° |
| 2026-05-06 18:13 | 59.61637 | 8.05537 | 35986 ft | 419 kts | 208° |
| 2026-05-06 18:14 | 59.56264 | 8.00994 | 36006 ft | 419 kts | 208° |
| 2026-05-06 18:14 | 59.50930 | 7.96509 | 36011 ft | 419 kts | 207° |
| 2026-05-06 18:15 | 59.45564 | 7.92027 | 36008 ft | 419 kts | 207° |
| 2026-05-06 18:15 | 59.40193 | 7.87548 | 36015 ft | 419 kts | 207° |
| 2026-05-06 18:16 | 59.34862 | 7.83097 | 35985 ft | 418 kts | 207° |
| 2026-05-06 18:16 | 59.29499 | 7.78650 | 36004 ft | 418 kts | 207° |
| 2026-05-06 18:17 | 59.24125 | 7.74220 | 36008 ft | 417 kts | 207° |
| 2026-05-06 18:17 | 59.18803 | 7.69835 | 36046 ft | 417 kts | 207° |
| 2026-05-06 18:18 | 59.13452 | 7.65425 | 36036 ft | 418 kts | 207° |
| 2026-05-06 18:18 | 59.08069 | 7.61035 | 35997 ft | 419 kts | 207° |
| 2026-05-06 18:19 | 59.02686 | 7.56660 | 36015 ft | 419 kts | 207° |
| 2026-05-06 18:19 | 58.97329 | 7.52312 | 36026 ft | 418 kts | 207° |
| 2026-05-06 18:20 | 58.91955 | 7.47968 | 36021 ft | 418 kts | 207° |
| 2026-05-06 18:20 | 58.86570 | 7.43629 | 36028 ft | 419 kts | 207° |
| 2026-05-06 18:21 | 58.81223 | 7.39324 | 35993 ft | 419 kts | 207° |
| 2026-05-06 18:21 | 58.75833 | 7.35001 | 36005 ft | 419 kts | 207° |
| 2026-05-06 18:22 | 58.70448 | 7.30694 | 36020 ft | 419 kts | 207° |
| 2026-05-06 18:22 | 58.65054 | 7.26397 | 36028 ft | 419 kts | 207° |
| 2026-05-06 18:23 | 58.59679 | 7.22136 | 36031 ft | 420 kts | 207° |
| 2026-05-06 18:23 | 58.54277 | 7.17869 | 36032 ft | 420 kts | 207° |
| 2026-05-06 18:24 | 58.48866 | 7.13610 | 36023 ft | 419 kts | 207° |
| 2026-05-06 18:24 | 58.43518 | 7.09409 | 36024 ft | 419 kts | 207° |
| 2026-05-06 18:25 | 58.38120 | 7.05178 | 36017 ft | 419 kts | 207° |
| 2026-05-06 18:25 | 58.32721 | 7.00964 | 36016 ft | 419 kts | 207° |
| 2026-05-06 18:26 | 58.27324 | 6.96771 | 35976 ft | 419 kts | 206° |
| 2026-05-06 18:26 | 58.21921 | 6.92581 | 35989 ft | 419 kts | 206° |
| 2026-05-06 18:27 | 58.16548 | 6.88423 | 36010 ft | 419 kts | 206° |
| 2026-05-06 18:27 | 58.11132 | 6.84269 | 36014 ft | 419 kts | 206° |
| 2026-05-06 18:28 | 58.05720 | 6.80119 | 36016 ft | 419 kts | 206° |
| 2026-05-06 18:28 | 58.00351 | 6.76008 | 35987 ft | 419 kts | 206° |
| 2026-05-06 18:29 | 57.94938 | 6.71876 | 36009 ft | 419 kts | 206° |
| 2026-05-06 18:29 | 57.89514 | 6.67749 | 36006 ft | 420 kts | 206° |
| 2026-05-06 18:30 | 57.84107 | 6.63655 | 36009 ft | 421 kts | 206° |
| 2026-05-06 18:30 | 57.78655 | 6.59546 | 36013 ft | 422 kts | 206° |
| 2026-05-06 18:31 | 57.73242 | 6.55474 | 35991 ft | 422 kts | 206° |
| 2026-05-06 18:31 | 57.67771 | 6.51368 | 36017 ft | 422 kts | 206° |
| 2026-05-06 18:32 | 57.62306 | 6.47275 | 36036 ft | 423 kts | 206° |
| 2026-05-06 18:32 | 57.56876 | 6.43216 | 36033 ft | 423 kts | 206° |
| 2026-05-06 18:33 | 57.51403 | 6.39149 | 36035 ft | 423 kts | 206° |
| 2026-05-06 18:33 | 57.45938 | 6.35112 | 36019 ft | 423 kts | 205° |
| 2026-05-06 18:34 | 57.40462 | 6.31074 | 36025 ft | 423 kts | 205° |
| 2026-05-06 18:34 | 57.34992 | 6.27061 | 36034 ft | 423 kts | 205° |
| 2026-05-06 18:35 | 57.29552 | 6.23072 | 36041 ft | 423 kts | 205° |
| 2026-05-06 18:35 | 57.24072 | 6.19069 | 36044 ft | 423 kts | 205° |
| 2026-05-06 18:36 | 57.18589 | 6.15071 | 36034 ft | 423 kts | 205° |
| 2026-05-06 18:36 | 57.13147 | 6.11114 | 36044 ft | 423 kts | 205° |
| 2026-05-06 18:37 | 57.08551 | 6.07779 | 36050 ft | 424 kts | 205° |
| 2026-05-06 18:37 | 57.02161 | 6.03166 | 36055 ft | 424 kts | 205° |
| 2026-05-06 18:38 | 56.96658 | 5.99213 | 36024 ft | 424 kts | 205° |
| 2026-05-06 18:38 | 56.91190 | 5.95289 | 36045 ft | 424 kts | 205° |
| 2026-05-06 18:39 | 56.85681 | 5.91351 | 36057 ft | 424 kts | 205° |
| 2026-05-06 18:40 | 56.77445 | 5.85513 | 36063 ft | 424 kts | 205° |
| 2026-05-06 18:40 | 56.71931 | 5.81594 | 36075 ft | 424 kts | 205° |
| 2026-05-06 18:41 | 56.66422 | 5.77684 | 36051 ft | 425 kts | 205° |
| 2026-05-06 18:41 | 56.60927 | 5.73813 | 36055 ft | 425 kts | 205° |
| 2026-05-06 18:42 | 56.55391 | 5.69946 | 36055 ft | 426 kts | 204° |
| 2026-05-06 18:42 | 56.49889 | 5.66098 | 36059 ft | 426 kts | 205° |
| 2026-05-06 18:43 | 56.44343 | 5.62221 | 36039 ft | 426 kts | 204° |
| 2026-05-06 18:43 | 56.38810 | 5.58354 | 36046 ft | 426 kts | 204° |
| 2026-05-06 18:44 | 56.33310 | 5.54537 | 36054 ft | 426 kts | 204° |
| 2026-05-06 18:44 | 56.27772 | 5.50700 | 36058 ft | 426 kts | 204° |
| 2026-05-06 18:45 | 56.22266 | 5.46901 | 36064 ft | 426 kts | 204° |
| 2026-05-06 18:45 | 56.16732 | 5.43105 | 36042 ft | 426 kts | 204° |
| 2026-05-06 18:46 | 56.11199 | 5.39314 | 36058 ft | 426 kts | 204° |
| 2026-05-06 18:46 | 56.05647 | 5.35526 | 36061 ft | 426 kts | 204° |
| 2026-05-06 18:47 | 56.01043 | 5.32390 | 36069 ft | 426 kts | 204° |
| 2026-05-06 18:47 | 55.95528 | 5.28639 | 36061 ft | 426 kts | 204° |
| 2026-05-06 18:48 | 55.89984 | 5.24883 | 36060 ft | 426 kts | 204° |
| 2026-05-06 18:48 | 55.84442 | 5.21145 | 36061 ft | 426 kts | 204° |
| 2026-05-06 18:49 | 55.78889 | 5.17404 | 36064 ft | 426 kts | 204° |
| 2026-05-06 18:49 | 55.73356 | 5.13685 | 36067 ft | 426 kts | 204° |
| 2026-05-06 18:50 | 55.67796 | 5.09958 | 36040 ft | 426 kts | 204° |
| 2026-05-06 18:50 | 55.62273 | 5.06278 | 36053 ft | 426 kts | 204° |
| 2026-05-06 18:51 | 55.56716 | 5.02587 | 36062 ft | 426 kts | 204° |
| 2026-05-06 18:51 | 55.51149 | 4.98899 | 36065 ft | 426 kts | 204° |
| 2026-05-06 18:52 | 55.45629 | 4.95236 | 36065 ft | 425 kts | 204° |
| 2026-05-06 18:52 | 55.40081 | 4.91584 | 36048 ft | 425 kts | 203° |
| 2026-05-06 18:53 | 55.34557 | 4.87966 | 36055 ft | 425 kts | 203° |
| 2026-05-06 18:53 | 55.29013 | 4.84341 | 36046 ft | 425 kts | 203° |
| 2026-05-06 18:54 | 55.23482 | 4.80739 | 36043 ft | 425 kts | 203° |
| 2026-05-06 18:54 | 55.17938 | 4.77126 | 36043 ft | 425 kts | 203° |
| 2026-05-06 18:55 | 55.12405 | 4.73527 | 36022 ft | 425 kts | 203° |
| 2026-05-06 18:55 | 55.06846 | 4.69917 | 36029 ft | 425 kts | 203° |
| 2026-05-06 18:56 | 55.01304 | 4.66328 | 36024 ft | 425 kts | 203° |
| 2026-05-06 18:56 | 54.95778 | 4.62773 | 36027 ft | 425 kts | 203° |
| 2026-05-06 18:57 | 54.90210 | 4.59207 | 36006 ft | 425 kts | 203° |
| 2026-05-06 18:57 | 54.84690 | 4.55677 | 36020 ft | 425 kts | 203° |
| 2026-05-06 18:58 | 54.79130 | 4.52136 | 36018 ft | 426 kts | 203° |
| 2026-05-06 18:58 | 54.73564 | 4.48602 | 36028 ft | 426 kts | 203° |
| 2026-05-06 18:59 | 54.67991 | 4.45066 | 36034 ft | 426 kts | 203° |
| 2026-05-06 18:59 | 54.62441 | 4.41556 | 36024 ft | 427 kts | 202° |
| 2026-05-06 19:00 | 54.57052 | 4.37370 | 36027 ft | 424 kts | 210° |
| 2026-05-06 19:00 | 54.51866 | 4.32631 | 36029 ft | 424 kts | 210° |
| 2026-05-06 19:01 | 54.46641 | 4.27880 | 36050 ft | 424 kts | 210° |
| 2026-05-06 19:01 | 54.41403 | 4.23150 | 36029 ft | 425 kts | 210° |
| 2026-05-06 19:02 | 54.36186 | 4.18462 | 36029 ft | 425 kts | 210° |
| 2026-05-06 19:02 | 54.30922 | 4.13731 | 36033 ft | 426 kts | 210° |
| 2026-05-06 19:03 | 54.25705 | 4.09047 | 36037 ft | 426 kts | 210° |
| 2026-05-06 19:03 | 54.20434 | 4.04321 | 36040 ft | 426 kts | 210° |
| 2026-05-06 19:04 | 54.15204 | 3.99655 | 36029 ft | 426 kts | 210° |
| 2026-05-06 19:04 | 54.09933 | 3.94978 | 36035 ft | 427 kts | 210° |
| 2026-05-06 19:05 | 54.04656 | 3.90302 | 36037 ft | 427 kts | 210° |
| 2026-05-06 19:05 | 53.99414 | 3.85652 | 36041 ft | 427 kts | 210° |
| 2026-05-06 19:06 | 53.94126 | 3.80995 | 36043 ft | 427 kts | 210° |
| 2026-05-06 19:06 | 53.88835 | 3.76329 | 36031 ft | 428 kts | 210° |
| 2026-05-06 19:07 | 53.83573 | 3.71697 | 36031 ft | 428 kts | 209° |
| 2026-05-06 19:07 | 53.78257 | 3.67057 | 36037 ft | 428 kts | 209° |
| 2026-05-06 19:08 | 53.72990 | 3.62485 | 36045 ft | 428 kts | 209° |
| 2026-05-06 19:08 | 53.67679 | 3.57871 | 36019 ft | 428 kts | 209° |
| 2026-05-06 19:09 | 53.62370 | 3.53269 | 36027 ft | 429 kts | 209° |
| 2026-05-06 19:09 | 53.57086 | 3.48692 | 36033 ft | 429 kts | 209° |
| 2026-05-06 19:10 | 53.51763 | 3.44093 | 36035 ft | 429 kts | 209° |
| 2026-05-06 19:10 | 53.46466 | 3.39543 | 36030 ft | 429 kts | 209° |
| 2026-05-06 19:11 | 53.41124 | 3.34978 | 36030 ft | 429 kts | 209° |
| 2026-05-06 19:11 | 53.35797 | 3.30437 | 36023 ft | 429 kts | 209° |
| 2026-05-06 19:12 | 53.30503 | 3.25932 | 36012 ft | 430 kts | 209° |
| 2026-05-06 19:12 | 53.25171 | 3.21390 | 36013 ft | 430 kts | 209° |
| 2026-05-06 19:13 | 53.19833 | 3.16861 | 35995 ft | 430 kts | 209° |
| 2026-05-06 19:13 | 53.14531 | 3.12378 | 35996 ft | 430 kts | 209° |
| 2026-05-06 19:14 | 53.09173 | 3.07863 | 35999 ft | 431 kts | 208° |
| 2026-05-06 19:14 | 53.03849 | 3.03394 | 36031 ft | 431 kts | 208° |
| 2026-05-06 19:15 | 52.98477 | 2.98899 | 36031 ft | 431 kts | 208° |
| 2026-05-06 19:15 | 52.93110 | 2.94410 | 36015 ft | 431 kts | 208° |
| 2026-05-06 19:16 | 52.87784 | 2.89961 | 36011 ft | 431 kts | 208° |
| 2026-05-06 19:16 | 52.82408 | 2.85494 | 35985 ft | 432 kts | 208° |
| 2026-05-06 19:16 | 52.79748 | 2.83295 | 35732 ft | 432 kts | 208° |
| 2026-05-06 19:17 | 52.77065 | 2.81079 | 35488 ft | 431 kts | 208° |
| 2026-05-06 19:17 | 52.74383 | 2.78860 | 35242 ft | 430 kts | 208° |
| 2026-05-06 19:17 | 52.71704 | 2.76642 | 34989 ft | 430 kts | 208° |
| 2026-05-06 19:17 | 52.69015 | 2.74415 | 34447 ft | 433 kts | 208° |
| 2026-05-06 19:18 | 52.66299 | 2.72170 | 33589 ft | 437 kts | 208° |
| 2026-05-06 19:18 | 52.63618 | 2.69965 | 33064 ft | 433 kts | 208° |
| 2026-05-06 19:18 | 52.60924 | 2.67761 | 32560 ft | 429 kts | 208° |
| 2026-05-06 19:18 | 52.58267 | 2.65588 | 32047 ft | 425 kts | 208° |
| 2026-05-06 19:19 | 52.55624 | 2.63425 | 31529 ft | 421 kts | 208° |
| 2026-05-06 19:19 | 52.53008 | 2.61285 | 31019 ft | 418 kts | 208° |
| 2026-05-06 19:19 | 52.50414 | 2.59168 | 30499 ft | 415 kts | 208° |
| 2026-05-06 19:19 | 52.47842 | 2.57073 | 29982 ft | 411 kts | 208° |
| 2026-05-06 19:20 | 52.45299 | 2.55007 | 29727 ft | 404 kts | 208° |
| 2026-05-06 19:20 | 52.42775 | 2.52957 | 29624 ft | 407 kts | 208° |
| 2026-05-06 19:20 | 52.40238 | 2.50897 | 29525 ft | 406 kts | 208° |
| 2026-05-06 19:20 | 52.37733 | 2.48866 | 29399 ft | 406 kts | 208° |
| 2026-05-06 19:21 | 52.35207 | 2.46818 | 29252 ft | 405 kts | 208° |
| 2026-05-06 19:21 | 52.32684 | 2.44768 | 29106 ft | 404 kts | 208° |
| 2026-05-06 19:21 | 52.30172 | 2.42726 | 28949 ft | 403 kts | 208° |
| 2026-05-06 19:21 | 52.27662 | 2.40693 | 28817 ft | 402 kts | 208° |
| 2026-05-06 19:22 | 52.25145 | 2.38663 | 28643 ft | 402 kts | 208° |
| 2026-05-06 19:22 | 52.22635 | 2.36642 | 28518 ft | 402 kts | 208° |
| 2026-05-06 19:22 | 52.20126 | 2.34627 | 28372 ft | 401 kts | 208° |
| 2026-05-06 19:22 | 52.17620 | 2.32618 | 28225 ft | 401 kts | 208° |
| 2026-05-06 19:23 | 52.15124 | 2.30618 | 28078 ft | 400 kts | 208° |
| 2026-05-06 19:23 | 52.12675 | 2.28617 | 27937 ft | 398 kts | 212° |